page 7526 of 1004498 registered users

eBook PostsUsers

  1. 0glider71flame registered @ 2013-05-23 23:58:07, last login @ 2013-05-23 23:58:07
  2. 0fowlbutter32 registered @ 2013-05-23 23:59:51, last login @ 2013-05-23 23:59:51
  3. 0geese6sign registered @ 2013-05-23 23:59:54, last login @ 2013-05-23 23:59:54
  4. 0deworchid9 registered @ 2013-05-23 23:59:55, last login @ 2013-05-23 23:59:55
  5. 0tax9plate registered @ 2013-05-24 00:00:04, last login @ 2013-05-24 00:00:04
  6. 0save92japan registered @ 2013-05-24 00:01:19, last login @ 2013-05-24 00:37:47
  7. 0chardwaiter0 registered @ 2013-05-24 00:02:19, last login @ 2013-05-24 00:02:19
  8. 0mark04pump registered @ 2013-05-24 00:02:58, last login @ 2013-05-24 00:02:58
  9. 0clerkseal4 registered @ 2013-05-24 00:03:16, last login @ 2013-05-24 00:03:16
  10. 0bank4nylon registered @ 2013-05-24 00:03:24, last login @ 2013-05-24 00:03:24
  11. 0chequeorder97 registered @ 2013-05-24 00:05:07, last login @ 2013-05-24 00:05:07
  12. 0white89kevin registered @ 2013-05-24 00:05:38, last login @ 2013-05-24 00:05:38
  13. 0dockstore91 registered @ 2013-05-24 00:07:57, last login @ 2013-05-24 00:07:57
  14. 0josefsusanto registered @ 2013-05-24 00:08:14, last login @ 2013-05-24 00:08:14
  15. 0jeff08start registered @ 2013-05-24 00:08:17, last login @ 2013-05-24 00:08:17
  16. 0cheeseporter53 registered @ 2013-05-24 00:08:55, last login @ 2013-05-24 00:08:55
  17. 0meal91effect registered @ 2013-05-24 00:09:15, last login @ 2013-05-24 00:09:15
  18. 0park9fur registered @ 2013-05-24 00:09:40, last login @ 2013-05-24 00:09:40
  19. 0drive4yacht registered @ 2013-05-24 00:09:52, last login @ 2013-05-24 00:09:52
  20. 0land29nerve registered @ 2013-05-24 00:10:09, last login @ 2013-05-24 00:10:09
  21. 0george6friday registered @ 2013-05-24 00:10:28, last login @ 2013-05-24 00:10:28
  22. 0east46mall registered @ 2013-05-24 00:12:01, last login @ 2013-05-24 00:12:01
  23. 0cafeflock78 registered @ 2013-05-24 00:12:08, last login @ 2013-05-24 00:12:08
  24. 0income0voice registered @ 2013-05-24 00:12:22, last login @ 2013-05-24 00:12:22
  25. 0giant0fox registered @ 2013-05-24 00:13:52, last login @ 2013-05-24 00:13:52
  26. 0editor72bottle registered @ 2013-05-24 00:14:39, last login @ 2013-05-24 00:14:39
  27. 0hotellodz88y registered @ 2013-05-24 00:14:50, last login @ 2013-05-24 00:14:50
  28. 0throathail14 registered @ 2013-05-24 00:15:41, last login @ 2013-05-24 00:15:41
  29. 0dress6bass registered @ 2013-05-24 00:16:44, last login @ 2013-05-24 00:16:44
  30. 0toothsprout1 registered @ 2013-05-24 00:16:49, last login @ 2013-05-24 00:16:49
  31. 0bagball90 registered @ 2013-05-24 00:17:18, last login @ 2013-05-24 00:17:18
  32. 0blouse0spoon registered @ 2013-05-24 00:17:47, last login @ 2013-05-24 00:17:47
  33. 0covererror66 registered @ 2013-05-24 00:18:17, last login @ 2013-05-24 00:18:17
  34. 0manxseason22 registered @ 2013-05-24 00:18:25, last login @ 2013-05-24 00:18:25
  35. 0grey77suede registered @ 2013-05-24 00:19:58, last login @ 2013-05-24 00:19:58
  36. 0bandbotany43 registered @ 2013-05-24 00:20:00, last login @ 2013-05-24 00:20:00
  37. 0matchfight7 registered @ 2013-05-24 00:21:09, last login @ 2013-05-24 00:52:25
  38. 0tempo0fork registered @ 2013-05-24 00:21:15, last login @ 2013-05-24 00:21:15
  39. 0cake41pisces registered @ 2013-05-24 00:22:08, last login @ 2013-05-24 00:22:08
  40. 0belt89potato registered @ 2013-05-24 00:22:10, last login @ 2013-05-24 00:22:10
  41. 0churchtemper18 registered @ 2013-05-24 00:22:11, last login @ 2013-05-24 00:22:11
  42. 0child5father registered @ 2013-05-24 00:22:24, last login @ 2013-05-24 00:22:24
  43. 0oakhood52 registered @ 2013-05-24 00:22:51, last login @ 2013-05-24 00:22:51
  44. 0worker34 registered @ 2013-05-24 00:23:01, last login @ 2013-05-24 00:23:01
  45. 0soccersword24 registered @ 2013-05-24 00:23:34, last login @ 2013-05-24 00:23:34
  46. 0llama2brace registered @ 2013-05-24 00:24:15, last login @ 2013-05-24 00:24:15
  47. 0dugout97adult registered @ 2013-05-24 00:25:11, last login @ 2013-05-24 00:25:11
  48. 0routeshrimp5 registered @ 2013-05-24 00:25:17, last login @ 2013-05-24 01:00:07
  49. 0marginplace3 registered @ 2013-05-24 00:26:24, last login @ 2013-05-24 00:26:24
  50. 0letter2office registered @ 2013-05-24 00:26:38, last login @ 2013-05-24 00:26:38
  51. 0noodle8gate registered @ 2013-05-24 00:26:54, last login @ 2013-05-24 00:26:54
  52. 0drug6kayak registered @ 2013-05-24 00:28:57, last login @ 2013-05-24 00:28:57
  53. 0italyorchid65 registered @ 2013-05-24 00:29:00, last login @ 2013-05-24 00:29:00
  54. 0jarthrill4 registered @ 2013-05-24 00:30:03, last login @ 2013-05-24 00:30:03
  55. 0tail3tray registered @ 2013-05-24 00:30:07, last login @ 2013-05-24 00:30:07
  56. 0random1colt registered @ 2013-05-24 00:30:16, last login @ 2013-05-24 00:30:16
  57. 0cinema6sound registered @ 2013-05-24 00:30:41, last login @ 2013-05-24 00:30:41
  58. 0bongosyrup71 registered @ 2013-05-24 00:32:09, last login @ 2013-05-24 00:32:09
  59. 0slash98trade registered @ 2013-05-24 00:32:16, last login @ 2013-05-24 00:32:16
  60. 0sign58low registered @ 2013-05-24 00:33:00, last login @ 2013-05-24 00:52:58
  61. 0fight2doll registered @ 2013-05-24 00:33:20, last login @ 2013-05-24 00:33:20
  62. 0hedgefield1 registered @ 2013-05-24 00:35:21, last login @ 2013-05-24 00:35:21
  63. 0ahmed_gh_38 registered @ 2013-05-24 00:35:28, last login @ 2013-05-24 00:35:28
  64. 0knight79zephyr registered @ 2013-05-24 00:36:27, last login @ 2013-05-24 00:36:27
  65. 0cry52rub registered @ 2013-05-24 00:37:44, last login @ 2013-05-24 00:37:44
  66. 0museumalley9 registered @ 2013-05-24 00:37:48, last login @ 2013-05-24 00:37:48
  67. 0climbjump38 registered @ 2013-05-24 00:37:48, last login @ 2013-05-24 00:37:48
  68. 0printcrow8 registered @ 2013-05-24 00:38:19, last login @ 2013-05-24 00:38:19
  69. 0sail7shoe registered @ 2013-05-24 00:38:28, last login @ 2013-05-24 00:38:28
  70. 0range6note registered @ 2013-05-24 00:38:32, last login @ 2013-05-24 00:38:32
  71. 0felony6trip registered @ 2013-05-24 00:39:03, last login @ 2013-05-24 00:39:03
  72. 0dimpleground8 registered @ 2013-05-24 00:39:50, last login @ 2013-05-24 00:39:50
  73. 0gender0grip registered @ 2013-05-24 00:40:27, last login @ 2013-05-24 00:40:27
  74. 0pipe11ear registered @ 2013-05-24 00:40:52, last login @ 2013-05-24 00:40:52
  75. 0german5garlic registered @ 2013-05-24 00:41:05, last login @ 2013-05-24 00:41:05
  76. 0blackwoman92 registered @ 2013-05-24 00:44:48, last login @ 2013-05-24 00:44:48
  77. 0pocket54temper registered @ 2013-05-24 00:45:32, last login @ 2013-05-24 00:45:32
  78. 0vein4sneeze registered @ 2013-05-24 00:45:39, last login @ 2013-05-24 00:45:39
  79. 0searchsort91 registered @ 2013-05-24 00:45:59, last login @ 2013-05-24 00:45:59
  80. 0bodyfrench5 registered @ 2013-05-24 00:49:23, last login @ 2013-05-24 00:49:23
  81. 0arm01stool registered @ 2013-05-24 00:49:26, last login @ 2013-05-24 00:49:26
  82. 0robert62pin registered @ 2013-05-24 00:50:08, last login @ 2013-05-24 00:50:08
  83. 0temple5shell registered @ 2013-05-24 00:50:49, last login @ 2013-05-24 00:50:49
  84. 0dreamflame6 registered @ 2013-05-24 00:51:16, last login @ 2013-05-24 00:51:16
  85. 0cable39hope registered @ 2013-05-24 00:51:36, last login @ 2013-05-24 00:51:36
  86. 0sponge6asia registered @ 2013-05-24 00:51:38, last login @ 2013-05-24 00:51:38
  87. 0littergrip99 registered @ 2013-05-24 00:52:15, last login @ 2013-05-24 00:52:15
  88. 0jeep04bench registered @ 2013-05-24 00:53:02, last login @ 2013-05-24 00:53:02
  89. 0drillcord23 registered @ 2013-05-24 00:55:19, last login @ 2013-05-24 00:55:19
  90. 0carpinteyrovtw registered @ 2013-05-24 00:55:22, last login @ 2013-05-24 00:55:22
  91. 0twist16novel registered @ 2013-05-24 00:55:31, last login @ 2013-05-24 00:55:31
  92. 0restvase6 registered @ 2013-05-24 00:57:41, last login @ 2013-05-24 00:57:41
  93. 0slimebadge23 registered @ 2013-05-24 00:57:54, last login @ 2013-05-24 00:57:54
  94. 0drug1shape registered @ 2013-05-24 00:58:34, last login @ 2013-05-24 00:58:34
  95. 0chief3smile registered @ 2013-05-24 00:58:59, last login @ 2013-05-24 00:58:59
  96. 0groundteller6 registered @ 2013-05-24 00:59:15, last login @ 2013-05-24 00:59:15
  97. 0baconveil5 registered @ 2013-05-24 00:59:21, last login @ 2013-05-24 00:59:21
  98. 0goal15degree registered @ 2013-05-24 00:59:29, last login @ 2013-05-24 00:59:29
  99. 0napkin97clam registered @ 2013-05-24 01:00:07, last login @ 2013-05-24 01:00:07
  100. 0carrot34fish registered @ 2013-05-24 01:01:15, last login @ 2013-05-24 01:01:15
  101. 0boxplanet3 registered @ 2013-05-24 01:03:17, last login @ 2013-05-24 01:03:17

More...

[7536] [7535] [7534] [7533] [7532] [7531] [7530] [7529] [7528] [7527] [7526] [7525] [7524] [7523] [7522] [7521] [7520] [7519] [7518] [7517] ...[1]
Back to Top